Enrico I — ICHS — position and weather

sailwx.info

Track history (hours):
 
Tides and Currents Weather Stations Pressure Air Temp Water Temp Dewpoint Dewpoint Depression Visibility Wind Speed Wind Dir Waves Ship Positions

Enrico I

Last reported at 2017-Oct-08 10:44 UTC. Time now 2017-Oct-22 19:03 UTC.
Position N 39°56' E 016°59'.
Warning: this ship's position is 14 days out of date.

Length 35 m; draft 2.5 m.

MMSI: 247219900.

Date/timePositionNaut miles runAvg speedWind from/ knotsBaromVisibWave heightAir tempDewpointWater temp
2017-Oct-08 10:44N 39°56' E 016°59'2 5.9
2017-Oct-08 10:28N 39°58' E 016°58'3 5.9
2017-Oct-08 10:00N 40°01' E 016°58'3 5.7
2017-Oct-08 09:31N 40°04' E 016°58'3 5.4
2017-Oct-08 09:00N 40°06' E 016°59'3 5.4
2017-Oct-08 08:30N 40°09' E 016°59'3 5.5
2017-Oct-08 08:01N 40°11' E 017°00'3 5.5
2017-Oct-08 07:30N 40°14' E 017°02'3 5.6
2017-Oct-08 07:00N 40°17' E 017°03'3 5.8
2017-Oct-08 06:31N 40°19' E 017°05'3 5.8
2017-Oct-08 06:00N 40°22' E 017°06'3 5.5
2017-Oct-08 05:31N 40°24' E 017°08'3 5.2
2017-Oct-08 05:00N 40°26' E 017°10'3 5.3
2017-Oct-08 04:30N 40°28' E 017°13'1 2.2
2017-Oct-08 04:00N 40°29' E 017°12'0 0.0
2017-Oct-08 03:30N 40°29' E 017°12'0 0.0
2017-Oct-08 03:00N 40°29' E 017°12'0 0.0
2017-Oct-08 02:30N 40°29' E 017°12'0 0.0
2017-Oct-08 02:00N 40°29' E 017°12'0 0.0
2017-Oct-08 01:30N 40°29' E 017°12'0 0.0
2017-Oct-08 01:00N 40°29' E 017°12'0 0.0
2017-Oct-08 00:30N 40°29' E 017°12'0 0.0
2017-Oct-08 00:00N 40°29' E 017°12'0 0.0
2017-Oct-07 23:30N 40°29' E 017°12'0 0.0
2017-Oct-07 23:01N 40°29' E 017°12'0 0.0
2017-Oct-07 22:30N 40°29' E 017°12'0 0.0
2017-Oct-07 22:01N 40°29' E 017°12'0 0.0
2017-Oct-07 21:30N 40°29' E 017°12'0 0.0
2017-Oct-07 21:00N 40°29' E 017°12'0 0.0
2017-Oct-07 20:30N 40°29' E 017°12'0 0.0
2017-Oct-07 20:00N 40°29' E 017°12'0 0.0
2017-Oct-07 19:30N 40°29' E 017°12'0 0.0
2017-Oct-07 19:01N 40°29' E 017°12'0 0.0
2017-Oct-07 18:30N 40°29' E 017°12'0 0.0
2017-Oct-07 18:00N 40°29' E 017°12'0 0.0
2017-Oct-07 17:31N 40°29' E 017°12'0 0.0
2017-Oct-07 17:01N 40°29' E 017°12'0 0.0
2017-Oct-07 16:31N 40°29' E 017°12'0 0.0
2017-Oct-07 16:00N 40°29' E 017°12'0 0.0
2017-Oct-07 15:30N 40°29' E 017°12'0 0.0
2017-Oct-07 15:00N 40°29' E 017°12'0 0.0
2017-Oct-07 14:30N 40°29' E 017°12'0 0.0
2017-Oct-07 14:00N 40°29' E 017°12'0 0.0
2017-Oct-07 13:30N 40°29' E 017°12'0 0.0
2017-Oct-07 13:00N 40°29' E 017°12'0 0.0
2017-Oct-07 12:30N 40°29' E 017°12'0 0.0
2017-Oct-07 12:00N 40°29' E 017°12'0 0.0
2017-Oct-07 11:30N 40°29' E 017°12'0 0.0
2017-Oct-07 11:00N 40°29' E 017°12'0 0.0
2017-Oct-07 10:31N 40°29' E 017°12'0 0.0
2017-Oct-07 10:01N 40°29' E 017°12'0 0.0
2017-Oct-07 09:31N 40°29' E 017°12'0 0.0
2017-Oct-07 09:00N 40°29' E 017°12'0 0.0
2017-Oct-07 08:30N 40°29' E 017°12'0 0.0
2017-Oct-07 08:00N 40°29' E 017°12'0 0.0
2017-Oct-07 07:30N 40°29' E 017°12'0 0.0
2017-Oct-07 07:00N 40°29' E 017°12'0 0.0
2017-Oct-07 06:31N 40°29' E 017°12'0 0.0
2017-Oct-07 06:00N 40°29' E 017°12'0 0.0
2017-Oct-07 05:30N 40°29' E 017°12'0 0.0
2017-Oct-07 05:00N 40°29' E 017°12'0 0.0
2017-Oct-07 04:31N 40°29' E 017°12'0 0.0
2017-Oct-07 04:00N 40°29' E 017°12'0 0.0
2017-Oct-07 03:30N 40°29' E 017°12'0 0.0
2017-Oct-07 03:00N 40°29' E 017°12'0 0.0
2017-Oct-07 02:30N 40°29' E 017°12'0 0.0
2017-Oct-07 02:00N 40°29' E 017°12'0 0.0
2017-Oct-07 01:30N 40°29' E 017°12'0 0.0
2017-Oct-07 01:01N 40°29' E 017°12'0 0.0
2017-Oct-07 00:31N 40°29' E 017°12'0 0.0
2017-Oct-07 00:00N 40°29' E 017°12'0 0.0
2017-Oct-06 23:30N 40°29' E 017°12'0 0.0
2017-Oct-06 23:00N 40°29' E 017°12'0 0.0
2017-Oct-06 22:30N 40°29' E 017°12'0 0.0
2017-Oct-06 22:00N 40°29' E 017°12'0 0.0
2017-Oct-06 21:30N 40°29' E 017°12'0 0.0
2017-Oct-06 21:00N 40°29' E 017°12'0 0.0
2017-Oct-06 20:30N 40°29' E 017°12'0 0.0
2017-Oct-06 20:01N 40°29' E 017°12'0 0.0
2017-Oct-06 19:31N 40°29' E 017°12'0 0.0
2017-Oct-06 19:00N 40°29' E 017°12'0 0.0
2017-Oct-06 18:31N 40°29' E 017°12'0 0.0
2017-Oct-06 18:00N 40°29' E 017°12'0 0.0
2017-Oct-06 17:30N 40°29' E 017°12'0 0.0
2017-Oct-06 17:00N 40°29' E 017°12'0 0.0
2017-Oct-06 16:30N 40°29' E 017°12'0 0.0
2017-Oct-06 16:00N 40°29' E 017°12'0 0.0
2017-Oct-06 15:30N 40°29' E 017°12'0 0.0
2017-Oct-06 15:00N 40°29' E 017°12'0 0.0
2017-Oct-06 14:30N 40°29' E 017°12'0 0.0
2017-Oct-06 14:01N 40°29' E 017°12'0 0.0
2017-Oct-06 13:31N 40°29' E 017°12'0 0.0
2017-Oct-06 13:01N 40°29' E 017°12'0 0.0
2017-Oct-06 12:30N 40°29' E 017°12'0 0.0
2017-Oct-06 12:01N 40°29' E 017°12'1 1.1
2017-Oct-06 11:30N 40°28' E 017°12'1 1.8
2017-Oct-06 11:00N 40°29' E 017°13'0 0.0
2017-Oct-06 10:30N 40°29' E 017°13'0 0.0
2017-Oct-06 10:01N 40°29' E 017°13'1 2.6
2017-Oct-06 09:31N 40°29' E 017°12'0 0.0
2017-Oct-06 09:00N 40°29' E 017°12'0 0.0
2017-Oct-06 08:30N 40°29' E 017°12'0 0.0
2017-Oct-06 08:00N 40°29' E 017°12'0 0.0
2017-Oct-06 07:30N 40°29' E 017°12'0 0.0
2017-Oct-06 07:00N 40°29' E 017°12'0 0.0
2017-Oct-06 06:30N 40°29' E 017°12'0 0.0
2017-Oct-06 06:00N 40°29' E 017°12'0 0.0
2017-Oct-06 05:30N 40°29' E 017°12'0 0.0
2017-Oct-06 05:00N 40°29' E 017°12'0 0.0
2017-Oct-06 04:30N 40°29' E 017°12'0 0.0
2017-Oct-06 04:00N 40°29' E 017°12'0 0.0
2017-Oct-06 03:30N 40°29' E 017°12'0 0.0
2017-Oct-06 03:00N 40°29' E 017°12'0 0.0
2017-Oct-06 02:30N 40°29' E 017°12'0 0.0
2017-Oct-06 02:00N 40°29' E 017°12'0 0.0
2017-Oct-06 01:30N 40°29' E 017°12'0 0.0
2017-Oct-06 01:00N 40°29' E 017°12'0 0.0
2017-Oct-06 00:30N 40°29' E 017°12'0 0.0
2017-Oct-06 00:00N 40°29' E 017°12'0 0.0
2017-Oct-05 23:30N 40°29' E 017°12'0 0.0
2017-Oct-05 23:00N 40°29' E 017°12'0 0.0
2017-Oct-05 22:30N 40°29' E 017°12'0 0.0
2017-Oct-05 22:00N 40°29' E 017°12'0 0.0
2017-Oct-05 21:30N 40°29' E 017°12'0 0.0
2017-Oct-05 21:00N 40°29' E 017°12'0 0.0
2017-Oct-05 20:30N 40°29' E 017°12'0 0.0
2017-Oct-05 20:00N 40°29' E 017°12'0 0.0
2017-Oct-05 19:31N 40°29' E 017°12'0 0.0
2017-Oct-05 19:00N 40°29' E 017°12'0 0.0
2017-Oct-05 18:30N 40°29' E 017°12'0 0.0
2017-Oct-05 18:00N 40°29' E 017°12'0 0.0
2017-Oct-05 17:30N 40°29' E 017°12'0 0.0
2017-Oct-05 17:00N 40°29' E 017°12'0 0.0
2017-Oct-05 15:30N 40°29' E 017°12'0 0.0
2017-Oct-05 15:00N 40°29' E 017°12'0 0.0
2017-Oct-05 14:30N 40°29' E 017°12'0 0.3
2017-Oct-05 14:00N 40°28' E 017°12'0 0.0
2017-Oct-05 13:29N 40°28' E 017°12'0 0.0
2017-Oct-05 13:01N 40°28' E 017°12'0 0.0
2017-Oct-05 12:31N 40°28' E 017°12'0 0.0
2017-Oct-05 12:00N 40°28' E 017°12'0 0.0
2017-Oct-05 11:30N 40°28' E 017°12'0 0.0
2017-Oct-05 11:00N 40°28' E 017°12'0 0.0
2017-Oct-05 10:30N 40°28' E 017°12'0 0.0
2017-Oct-05 10:00N 40°28' E 017°12'0 0.1
2017-Oct-05 09:30N 40°28' E 017°12'0 0.0
2017-Oct-05 09:01N 40°28' E 017°12'0 0.0
2017-Oct-05 08:30N 40°28' E 017°12'0 0.0
2017-Oct-05 07:57N 40°28' E 017°12'0 0.0
2017-Oct-05 07:30N 40°28' E 017°12'0 0.0
2017-Oct-05 07:00N 40°28' E 017°12'0 0.0
2017-Oct-05 06:31N 40°28' E 017°12'0 0.2
2017-Oct-05 06:01N 40°29' E 017°12'0 0.0
2017-Oct-05 05:30N 40°29' E 017°12'0 0.0
2017-Oct-05 04:59N 40°29' E 017°12'0 0.0
2017-Oct-05 04:30N 40°29' E 017°12'0 0.0
2017-Oct-05 04:00N 40°29' E 017°12'0 0.0
2017-Oct-05 03:30N 40°29' E 017°12'0 0.0
2017-Oct-05 02:58N 40°29' E 017°12'0 0.0
2017-Oct-05 02:29N 40°29' E 017°12'0 0.0
2017-Oct-05 02:00N 40°29' E 017°12'0 0.0
2017-Oct-05 01:30N 40°29' E 017°12'0 0.0
2017-Oct-05 00:59N 40°29' E 017°12'0 0.0
2017-Oct-05 00:30N 40°29' E 017°12'0 0.0
2017-Oct-05 00:00N 40°29' E 017°12'0 0.0
2017-Oct-04 23:30N 40°29' E 017°12'0 0.0
2017-Oct-04 23:00N 40°29' E 017°12'0 0.0
2017-Oct-04 22:30N 40°29' E 017°12'0 0.0
2017-Oct-04 22:00N 40°29' E 017°12'0 0.0
2017-Oct-04 21:30N 40°29' E 017°12'0 0.0
2017-Oct-04 20:59N 40°29' E 017°12'0 0.0
2017-Oct-04 20:30N 40°29' E 017°12'0 0.0
2017-Oct-04 20:00N 40°29' E 017°12'0 0.0
2017-Oct-04 19:30N 40°29' E 017°12'0 0.0
2017-Oct-04 19:01N 40°29' E 017°12'0 0.0
2017-Oct-04 18:31N 40°29' E 017°12'0 0.0
2017-Oct-04 18:01N 40°29' E 017°12'0 0.0
2017-Oct-04 17:30N 40°29' E 017°12'0 0.0
2017-Oct-04 17:00N 40°29' E 017°12'0 0.0
2017-Oct-04 16:30N 40°29' E 017°12'0 0.0
2017-Oct-04 16:01N 40°29' E 017°12'0 0.0
2017-Oct-04 15:30N 40°29' E 017°12'0 0.0
2017-Oct-04 15:00N 40°29' E 017°12'0 0.0
2017-Oct-04 14:30N 40°29' E 017°12'0 0.0
2017-Oct-04 14:01N 40°29' E 017°12'0 0.2
2017-Oct-04 13:30N 40°28' E 017°12'0 0.0
2017-Oct-04 13:00N 40°28' E 017°12'0 0.0
2017-Oct-04 12:30N 40°28' E 017°12'0 0.0
2017-Oct-04 12:01N 40°28' E 017°12'0 0.0
2017-Oct-04 11:31N 40°28' E 017°12'0 0.3
2017-Oct-04 11:00N 40°29' E 017°12'0 0.0
2017-Oct-04 10:31N 40°29' E 017°12'0 0.0
2017-Oct-04 10:00N 40°29' E 017°12'0 0.0
2017-Oct-04 09:31N 40°29' E 017°12'0 0.0
2017-Oct-04 09:00N 40°29' E 017°12'0 0.0
2017-Oct-04 08:30N 40°29' E 017°12'0 0.0
2017-Oct-04 08:01N 40°29' E 017°12'0 0.0
2017-Oct-04 07:30N 40°29' E 017°12'0 0.0
2017-Oct-04 07:00N 40°29' E 017°12'0 0.0
2017-Oct-04 06:30N 40°29' E 017°12'0 0.0
2017-Oct-04 06:00N 40°29' E 017°12'0 0.0
2017-Oct-04 05:30N 40°29' E 017°12'0 0.0
2017-Oct-04 05:00N 40°29' E 017°12'0 0.0
2017-Oct-04 04:30N 40°29' E 017°12'0 0.0
2017-Oct-04 04:01N 40°29' E 017°12'0 0.0
2017-Oct-04 03:30N 40°29' E 017°12'0 0.0
2017-Oct-04 03:00N 40°29' E 017°12'0 0.0
2017-Oct-04 02:30N 40°29' E 017°12'0 0.0
2017-Oct-04 02:01N 40°29' E 017°12'0 0.0
2017-Oct-04 01:30N 40°29' E 017°12'0 0.0
2017-Oct-04 01:00N 40°29' E 017°12'0 0.0
2017-Oct-04 00:30N 40°29' E 017°12'0 0.0
2017-Oct-04 00:00N 40°29' E 017°12'0 0.0
2017-Oct-03 23:30N 40°29' E 017°12'0 0.0
2017-Oct-03 23:01N 40°29' E 017°12'0 0.0
2017-Oct-03 22:30N 40°29' E 017°12'0 0.0
2017-Oct-03 22:01N 40°29' E 017°12'0 0.0
2017-Oct-03 21:30N 40°29' E 017°12'0 0.0
2017-Oct-03 21:00N 40°29' E 017°12'0 0.0
2017-Oct-03 20:30N 40°29' E 017°12'0 0.0
2017-Oct-03 20:00N 40°29' E 017°12'0 0.0
2017-Oct-03 19:30N 40°29' E 017°12'0 0.0
2017-Oct-03 19:00N 40°29' E 017°12'0 0.0
2017-Oct-03 18:30N 40°29' E 017°12'0 0.0
2017-Oct-03 18:00N 40°29' E 017°12'0 0.0
2017-Oct-03 17:30N 40°29' E 017°12'0 0.0
2017-Oct-03 17:00N 40°29' E 017°12'0 0.0
2017-Oct-03 16:30N 40°29' E 017°12'0 0.0
2017-Oct-03 16:00N 40°29' E 017°12'0 0.0
2017-Oct-03 15:30N 40°29' E 017°12'0 0.0
2017-Oct-03 15:00N 40°29' E 017°12'0 0.0
2017-Oct-03 14:00N 40°29' E 017°12'0 0.0
2017-Oct-03 13:30N 40°29' E 017°12'0 0.0
2017-Oct-03 13:00N 40°29' E 017°12'0 0.0
2017-Oct-03 12:31N 40°29' E 017°12'0 0.0
2017-Oct-03 12:00N 40°29' E 017°12'0 0.3
2017-Oct-03 11:30N 40°28' E 017°12'0 0.0
2017-Oct-03 11:00N 40°28' E 017°12'0 0.2
2017-Oct-03 10:31N 40°29' E 017°12'0 0.0
2017-Oct-03 10:00N 40°29' E 017°12'0 0.2
2017-Oct-03 09:30N 40°28' E 017°12'0 0.0
2017-Oct-03 09:00N 40°28' E 017°12'0 0.2
2017-Oct-03 08:30N 40°29' E 017°12'0 0.0
2017-Oct-03 08:00N 40°29' E 017°12'0 0.2
2017-Oct-03 07:30N 40°28' E 017°12'0 0.0
2017-Oct-03 07:00N 40°28' E 017°12'0 0.0
2017-Oct-03 06:30N 40°28' E 017°12'0 0.2
2017-Oct-03 06:00N 40°29' E 017°12'0 0.0
2017-Oct-03 05:29N 40°29' E 017°12'0 0.0
2017-Oct-03 05:00N 40°29' E 017°12'0 0.0
2017-Oct-03 04:30N 40°29' E 017°12'0 0.0
2017-Oct-03 04:00N 40°29' E 017°12'0 0.0
2017-Oct-03 03:30N 40°29' E 017°12'0 0.0
2017-Oct-03 03:00N 40°29' E 017°12'0 0.0
2017-Oct-03 02:30N 40°29' E 017°12'0 0.0
2017-Oct-03 02:00N 40°29' E 017°12'0 0.0
2017-Oct-03 01:30N 40°29' E 017°12'0 0.0
2017-Oct-03 01:00N 40°29' E 017°12'0 0.0
2017-Oct-03 00:30N 40°29' E 017°12'0 0.0
2017-Oct-03 00:00N 40°29' E 017°12'0 0.0
2017-Oct-02 23:30N 40°29' E 017°12'0 0.0
2017-Oct-02 23:00N 40°29' E 017°12'0 0.0
2017-Oct-02 22:30N 40°29' E 017°12'0 0.0
2017-Oct-02 22:00N 40°29' E 017°12'0 0.0
2017-Oct-02 21:30N 40°29' E 017°12'0 0.0
2017-Oct-02 21:01N 40°29' E 017°12'0 0.0
2017-Oct-02 20:30N 40°29' E 017°12'0 0.0
2017-Oct-02 20:00N 40°29' E 017°12'0 0.0
2017-Oct-02 19:30N 40°29' E 017°12'0 0.0
2017-Oct-02 19:00N 40°29' E 017°12'0 0.0
2017-Oct-02 18:30N 40°29' E 017°12'0 0.0
2017-Oct-02 18:00N 40°29' E 017°12'0 0.0
2017-Oct-02 17:30N 40°29' E 017°12'0 0.0
2017-Oct-02 17:00N 40°29' E 017°12'0 0.0
2017-Oct-02 16:29N 40°29' E 017°12'0 0.0
2017-Oct-02 16:00N 40°29' E 017°12'0 0.0
2017-Oct-02 15:30N 40°29' E 017°12'0 0.0
2017-Oct-02 15:00N 40°29' E 017°12'0 0.0
2017-Oct-02 14:30N 40°29' E 017°12'0 0.0
2017-Oct-02 14:00N 40°29' E 017°12'0 0.0
2017-Oct-02 13:30N 40°29' E 017°12'0 0.0
2017-Oct-02 13:00N 40°29' E 017°12'0 0.0
2017-Oct-02 12:30N 40°29' E 017°12'0 0.0
2017-Oct-02 12:00N 40°29' E 017°12'0 0.0
2017-Oct-02 11:30N 40°29' E 017°12'0 0.0
2017-Oct-02 11:00N 40°29' E 017°12'0 0.3
2017-Oct-02 10:30N 40°28' E 017°12'0 0.1
2017-Oct-02 10:00N 40°28' E 017°12'0 0.2
2017-Oct-02 09:30N 40°29' E 017°12'0 0.0
2017-Oct-02 09:00N 40°29' E 017°12'0 0.3
2017-Oct-02 08:30N 40°28' E 017°12'0 0.0
2017-Oct-02 08:00N 40°28' E 017°12'0 0.3
2017-Oct-02 07:30N 40°29' E 017°12'0 0.0
2017-Oct-02 07:00N 40°29' E 017°12'0 0.0
2017-Oct-02 06:31N 40°29' E 017°12'0 0.0
2017-Oct-02 06:00N 40°29' E 017°12'0 0.0
2017-Oct-02 05:31N 40°29' E 017°12'0 0.0
2017-Oct-02 05:00N 40°29' E 017°12'0 0.0
2017-Oct-02 04:30N 40°29' E 017°12'0 0.0
2017-Oct-02 04:00N 40°29' E 017°12'0 0.0
2017-Oct-02 03:30N 40°29' E 017°12'0 0.0
2017-Oct-02 03:00N 40°29' E 017°12'0 0.0
2017-Oct-02 02:31N 40°29' E 017°12'0 0.0
2017-Oct-02 02:00N 40°29' E 017°12'0 0.0
2017-Oct-02 01:30N 40°29' E 017°12'0 0.0
2017-Oct-02 01:00N 40°29' E 017°12'0 0.0
2017-Oct-02 00:31N 40°29' E 017°12'0 0.0
2017-Oct-02 00:00N 40°29' E 017°12'0 0.0
2017-Oct-01 23:30N 40°29' E 017°12'0 0.0
2017-Oct-01 23:00N 40°29' E 017°12'0 0.0
2017-Oct-01 22:30N 40°29' E 017°12'0 0.0
2017-Oct-01 22:00N 40°29' E 017°12'0 0.0
2017-Oct-01 21:31N 40°29' E 017°12'0 0.0
2017-Oct-01 21:01N 40°29' E 017°12'0 0.0
2017-Oct-01 20:30N 40°29' E 017°12'0 0.0
2017-Oct-01 20:01N 40°29' E 017°12'0 0.0
2017-Oct-01 19:30N 40°29' E 017°12'0 0.0
2017-Oct-01 19:01N 40°29' E 017°12'0 0.0
2017-Oct-01 18:30N 40°29' E 017°12'0 0.0
2017-Oct-01 18:00N 40°29' E 017°12'0 0.0
2017-Oct-01 17:30N 40°29' E 017°12'0 0.0
2017-Oct-01 17:00N 40°29' E 017°12'0 0.0
2017-Oct-01 16:31N 40°29' E 017°12'0 0.0
2017-Oct-01 16:00N 40°29' E 017°12'0 0.0
2017-Oct-01 15:30N 40°29' E 017°12'0 0.0
2017-Oct-01 15:00N 40°29' E 017°12'0 0.0
2017-Oct-01 14:30N 40°29' E 017°12'0 0.0
2017-Oct-01 13:59N 40°29' E 017°12'0 0.0
2017-Oct-01 13:30N 40°29' E 017°12'0 0.0
2017-Oct-01 13:00N 40°29' E 017°12'0 0.0
2017-Oct-01 12:30N 40°29' E 017°12'0 0.0
2017-Oct-01 12:01N 40°29' E 017°12'0 0.0
2017-Oct-01 11:30N 40°29' E 017°12'0 0.2
2017-Oct-01 11:00N 40°28' E 017°12'0 0.0
2017-Oct-01 10:31N 40°28' E 017°12'0 0.0
2017-Oct-01 10:00N 40°28' E 017°12'0 0.0
2017-Oct-01 09:30N 40°28' E 017°12'0 0.0
2017-Oct-01 09:01N 40°28' E 017°12'0 0.0
2017-Oct-01 08:30N 40°28' E 017°12'0 0.0
2017-Oct-01 08:00N 40°28' E 017°12'0 0.0
2017-Oct-01 07:30N 40°28' E 017°12'0 0.0
2017-Oct-01 07:00N 40°28' E 017°12'0 0.0
2017-Oct-01 06:30N 40°28' E 017°12'0 0.3
2017-Oct-01 06:00N 40°29' E 017°12'0 0.0
2017-Oct-01 05:30N 40°29' E 017°12'0 0.0
2017-Oct-01 05:00N 40°29' E 017°12'0 0.0
2017-Oct-01 04:30N 40°29' E 017°12'0 0.0
2017-Oct-01 04:00N 40°29' E 017°12'0 0.0
2017-Oct-01 03:30N 40°29' E 017°12'0 0.0
2017-Oct-01 03:00N 40°29' E 017°12'0 0.0
2017-Sep-30 02:00N 40°29' E 017°12'0 0.0
2017-Sep-30 01:30N 40°29' E 017°12'0 0.0
2017-Sep-30 01:00N 40°29' E 017°12'0 0.0
2017-Sep-30 00:30N 40°29' E 017°12'0 0.0
2017-Sep-30 00:01N 40°29' E 017°12'0 0.0
2017-Sep-29 23:30N 40°29' E 017°12'0 0.0
2017-Sep-29 23:00N 40°29' E 017°12'0 0.0
2017-Sep-29 22:30N 40°29' E 017°12'0 0.0
2017-Sep-29 22:00N 40°29' E 017°12'0 0.0
2017-Sep-29 21:30N 40°29' E 017°12'0 0.0
2017-Sep-29 21:00N 40°29' E 017°12'0 0.0
2017-Sep-29 20:30N 40°29' E 017°12'0 0.0
2017-Sep-29 20:00N 40°29' E 017°12'0 0.0
2017-Sep-29 19:30N 40°29' E 017°12'0 0.0
2017-Sep-29 19:00N 40°29' E 017°12'0 0.0
2017-Sep-29 18:30N 40°29' E 017°12'0 0.0
2017-Sep-29 18:00N 40°29' E 017°12'0 0.0
2017-Sep-29 17:30N 40°29' E 017°12'0 0.0
2017-Sep-29 17:00N 40°29' E 017°12'0 0.0
2017-Sep-29 16:30N 40°29' E 017°12'0 0.0
2017-Sep-29 16:00N 40°29' E 017°12'0 0.0
2017-Sep-29 15:30N 40°29' E 017°12'0 0.2
2017-Sep-29 15:00N 40°28' E 017°12'0 0.0
2017-Sep-29 14:31N 40°28' E 017°12'0 0.0
2017-Sep-29 14:00N 40°28' E 017°12'0 0.0
2017-Sep-29 13:31N 40°28' E 017°12'0 0.0
2017-Sep-29 13:00N 40°28' E 017°12'0 0.0
2017-Sep-29 12:30N 40°28' E 017°12'0 0.0
2017-Sep-29 12:00N 40°28' E 017°12'0 0.0
2017-Sep-29 11:30N 40°28' E 017°12'0 0.0
2017-Sep-29 11:00N 40°28' E 017°12'0 0.0
2017-Sep-29 10:30N 40°28' E 017°12'0 0.3
2017-Sep-29 10:00N 40°29' E 017°12'0 0.3
2017-Sep-29 09:31N 40°28' E 017°12'0 0.0
2017-Sep-29 09:00N 40°28' E 017°12'0 0.0
2017-Sep-29 08:30N 40°28' E 017°12'0 0.0
2017-Sep-29 08:00N 40°28' E 017°12'0 0.0
2017-Sep-29 07:30N 40°28' E 017°12'0 0.3
2017-Sep-29 07:00N 40°29' E 017°12'0 0.0
2017-Sep-29 06:30N 40°29' E 017°12'0 0.0
2017-Sep-29 06:00N 40°29' E 017°12'0 0.0
2017-Sep-29 05:31N 40°29' E 017°12'0 0.0
2017-Sep-29 05:00N 40°29' E 017°12'0 0.0
2017-Sep-29 04:30N 40°29' E 017°12'0 0.0
2017-Sep-29 04:00N 40°29' E 017°12'0 0.0
2017-Sep-29 03:30N 40°29' E 017°12'0 0.0
2017-Sep-29 03:01N 40°29' E 017°12'0 0.0
2017-Sep-29 02:30N 40°29' E 017°12'0 0.0
2017-Sep-29 02:00N 40°29' E 017°12'0 0.0
2017-Sep-29 01:30N 40°29' E 017°12'0 0.0
2017-Sep-29 01:00N 40°29' E 017°12'0 0.0
2017-Sep-29 00:30N 40°29' E 017°12'0 0.0
2017-Sep-29 00:00N 40°29' E 017°12'0 0.0
2017-Sep-28 23:31N 40°29' E 017°12'0 0.0
2017-Sep-28 23:00N 40°29' E 017°12'0 0.0
2017-Sep-28 22:31N 40°29' E 017°12'0 0.0
2017-Sep-28 22:00N 40°29' E 017°12'0 0.0
2017-Sep-28 21:31N 40°29' E 017°12'0 0.0
2017-Sep-28 21:00N 40°29' E 017°12'0 0.0
2017-Sep-28 20:31N 40°29' E 017°12'0 0.0
2017-Sep-28 20:01N 40°29' E 017°12'0 0.0
2017-Sep-28 19:30N 40°29' E 017°12'0 0.0
2017-Sep-28 19:00N 40°29' E 017°12'0 0.0
2017-Sep-28 18:30N 40°29' E 017°12'0 0.0
2017-Sep-28 18:00N 40°29' E 017°12'0 0.0
2017-Sep-28 17:30N 40°29' E 017°12'0 0.0
2017-Sep-28 17:00N 40°29' E 017°12'0 0.0
2017-Sep-28 16:30N 40°29' E 017°12'0 0.0
2017-Sep-28 16:00N 40°29' E 017°12'0 0.0
2017-Sep-28 15:30N 40°29' E 017°12'0 0.0
2017-Sep-28 14:59N 40°29' E 017°12'0 0.0
2017-Sep-28 14:30N 40°29' E 017°12'0 0.3
2017-Sep-28 14:00N 40°28' E 017°12'0 0.0
2017-Sep-28 13:30N 40°28' E 017°12'0 0.0
2017-Sep-28 13:01N 40°28' E 017°12'0 0.0
2017-Sep-28 12:30N 40°28' E 017°12'0 0.0
2017-Sep-28 12:00N 40°28' E 017°12'0 0.0
2017-Sep-28 11:30N 40°28' E 017°12'0 0.0
2017-Sep-28 11:00N 40°28' E 017°12'  
Track history (hours):
 
Tides and Currents Weather Stations Pressure Air Temp Water Temp Dewpoint Dewpoint Depression Visibility Wind Speed Wind Dir Waves Ship Positions

Enrico I

Last reported at 2017-Oct-08 10:44 UTC. Time now 2017-Oct-22 19:03 UTC.
Position N 39°56' E 016°59'.
Warning: this ship's position is 14 days out of date.

Length 35 m; draft 2.5 m.

MMSI: 247219900.

Date/timePositionNaut miles runAvg speedWind from/ knotsBaromVisibWave heightAir tempDewpointWater temp
2017-Oct-08 10:44N 39°56' E 016°59'2 5.9
2017-Oct-08 10:28N 39°58' E 016°58'3 5.9
2017-Oct-08 10:00N 40°01' E 016°58'3 5.7
2017-Oct-08 09:31N 40°04' E 016°58'3 5.4
2017-Oct-08 09:00N 40°06' E 016°59'3 5.4
2017-Oct-08 08:30N 40°09' E 016°59'3 5.5
2017-Oct-08 08:01N 40°11' E 017°00'3 5.5
2017-Oct-08 07:30N 40°14' E 017°02'3 5.6
2017-Oct-08 07:00N 40°17' E 017°03'3 5.8
2017-Oct-08 06:31N 40°19' E 017°05'3 5.8
2017-Oct-08 06:00N 40°22' E 017°06'3 5.5
2017-Oct-08 05:31N 40°24' E 017°08'3 5.2
2017-Oct-08 05:00N 40°26' E 017°10'3 5.3
2017-Oct-08 04:30N 40°28' E 017°13'1 2.2
2017-Oct-08 04:00N 40°29' E 017°12'0 0.0
2017-Oct-08 03:30N 40°29' E 017°12'0 0.0
2017-Oct-08 03:00N 40°29' E 017°12'0 0.0
2017-Oct-08 02:30N 40°29' E 017°12'0 0.0
2017-Oct-08 02:00N 40°29' E 017°12'0 0.0
2017-Oct-08 01:30N 40°29' E 017°12'0 0.0
2017-Oct-08 01:00N 40°29' E 017°12'0 0.0
2017-Oct-08 00:30N 40°29' E 017°12'0 0.0
2017-Oct-08 00:00N 40°29' E 017°12'0 0.0
2017-Oct-07 23:30N 40°29' E 017°12'0 0.0
2017-Oct-07 23:01N 40°29' E 017°12'0 0.0
2017-Oct-07 22:30N 40°29' E 017°12'0 0.0
2017-Oct-07 22:01N 40°29' E 017°12'0 0.0
2017-Oct-07 21:30N 40°29' E 017°12'0 0.0
2017-Oct-07 21:00N 40°29' E 017°12'0 0.0
2017-Oct-07 20:30N 40°29' E 017°12'0 0.0
2017-Oct-07 20:00N 40°29' E 017°12'0 0.0
2017-Oct-07 19:30N 40°29' E 017°12'0 0.0
2017-Oct-07 19:01N 40°29' E 017°12'0 0.0
2017-Oct-07 18:30N 40°29' E 017°12'0 0.0
2017-Oct-07 18:00N 40°29' E 017°12'0 0.0
2017-Oct-07 17:31N 40°29' E 017°12'0 0.0
2017-Oct-07 17:01N 40°29' E 017°12'0 0.0
2017-Oct-07 16:31N 40°29' E 017°12'0 0.0
2017-Oct-07 16:00N 40°29' E 017°12'0 0.0
2017-Oct-07 15:30N 40°29' E 017°12'0 0.0
2017-Oct-07 15:00N 40°29' E 017°12'0 0.0
2017-Oct-07 14:30N 40°29' E 017°12'0 0.0
2017-Oct-07 14:00N 40°29' E 017°12'0 0.0
2017-Oct-07 13:30N 40°29' E 017°12'0 0.0
2017-Oct-07 13:00N 40°29' E 017°12'0 0.0
2017-Oct-07 12:30N 40°29' E 017°12'0 0.0
2017-Oct-07 12:00N 40°29' E 017°12'0 0.0
2017-Oct-07 11:30N 40°29' E 017°12'0 0.0
2017-Oct-07 11:00N 40°29' E 017°12'0 0.0
2017-Oct-07 10:31N 40°29' E 017°12'0 0.0
2017-Oct-07 10:01N 40°29' E 017°12'0 0.0
2017-Oct-07 09:31N 40°29' E 017°12'0 0.0
2017-Oct-07 09:00N 40°29' E 017°12'0 0.0
2017-Oct-07 08:30N 40°29' E 017°12'0 0.0
2017-Oct-07 08:00N 40°29' E 017°12'0 0.0
2017-Oct-07 07:30N 40°29' E 017°12'0 0.0
2017-Oct-07 07:00N 40°29' E 017°12'0 0.0
2017-Oct-07 06:31N 40°29' E 017°12'0 0.0
2017-Oct-07 06:00N 40°29' E 017°12'0 0.0
2017-Oct-07 05:30N 40°29' E 017°12'0 0.0
2017-Oct-07 05:00N 40°29' E 017°12'0 0.0
2017-Oct-07 04:31N 40°29' E 017°12'0 0.0
2017-Oct-07 04:00N 40°29' E 017°12'0 0.0
2017-Oct-07 03:30N 40°29' E 017°12'0 0.0
2017-Oct-07 03:00N 40°29' E 017°12'0 0.0
2017-Oct-07 02:30N 40°29' E 017°12'0 0.0
2017-Oct-07 02:00N 40°29' E 017°12'0 0.0
2017-Oct-07 01:30N 40°29' E 017°12'0 0.0
2017-Oct-07 01:01N 40°29' E 017°12'0 0.0
2017-Oct-07 00:31N 40°29' E 017°12'0 0.0
2017-Oct-07 00:00N 40°29' E 017°12'0 0.0
2017-Oct-06 23:30N 40°29' E 017°12'0 0.0
2017-Oct-06 23:00N 40°29' E 017°12'0 0.0
2017-Oct-06 22:30N 40°29' E 017°12'0 0.0
2017-Oct-06 22:00N 40°29' E 017°12'0 0.0
2017-Oct-06 21:30N 40°29' E 017°12'0 0.0
2017-Oct-06 21:00N 40°29' E 017°12'0 0.0
2017-Oct-06 20:30N 40°29' E 017°12'0 0.0
2017-Oct-06 20:01N 40°29' E 017°12'0 0.0
2017-Oct-06 19:31N 40°29' E 017°12'0 0.0
2017-Oct-06 19:00N 40°29' E 017°12'0 0.0
2017-Oct-06 18:31N 40°29' E 017°12'0 0.0
2017-Oct-06 18:00N 40°29' E 017°12'0 0.0
2017-Oct-06 17:30N 40°29' E 017°12'0 0.0
2017-Oct-06 17:00N 40°29' E 017°12'0 0.0
2017-Oct-06 16:30N 40°29' E 017°12'0 0.0
2017-Oct-06 16:00N 40°29' E 017°12'0 0.0
2017-Oct-06 15:30N 40°29' E 017°12'0 0.0
2017-Oct-06 15:00N 40°29' E 017°12'0 0.0
2017-Oct-06 14:30N 40°29' E 017°12'0 0.0
2017-Oct-06 14:01N 40°29' E 017°12'0 0.0
2017-Oct-06 13:31N 40°29' E 017°12'0 0.0
2017-Oct-06 13:01N 40°29' E 017°12'0 0.0
2017-Oct-06 12:30N 40°29' E 017°12'0 0.0
2017-Oct-06 12:01N 40°29' E 017°12'1 1.1
2017-Oct-06 11:30N 40°28' E 017°12'1 1.8
2017-Oct-06 11:00N 40°29' E 017°13'0 0.0
2017-Oct-06 10:30N 40°29' E 017°13'0 0.0
2017-Oct-06 10:01N 40°29' E 017°13'1 2.6
2017-Oct-06 09:31N 40°29' E 017°12'0 0.0
2017-Oct-06 09:00N 40°29' E 017°12'0 0.0
2017-Oct-06 08:30N 40°29' E 017°12'0 0.0
2017-Oct-06 08:00N 40°29' E 017°12'0 0.0
2017-Oct-06 07:30N 40°29' E 017°12'0 0.0
2017-Oct-06 07:00N 40°29' E 017°12'0 0.0
2017-Oct-06 06:30N 40°29' E 017°12'0 0.0
2017-Oct-06 06:00N 40°29' E 017°12'0 0.0
2017-Oct-06 05:30N 40°29' E 017°12'0 0.0
2017-Oct-06 05:00N 40°29' E 017°12'0 0.0
2017-Oct-06 04:30N 40°29' E 017°12'0 0.0
2017-Oct-06 04:00N 40°29' E 017°12'0 0.0
2017-Oct-06 03:30N 40°29' E 017°12'0 0.0
2017-Oct-06 03:00N 40°29' E 017°12'0 0.0
2017-Oct-06 02:30N 40°29' E 017°12'0 0.0
2017-Oct-06 02:00N 40°29' E 017°12'0 0.0
2017-Oct-06 01:30N 40°29' E 017°12'0 0.0
2017-Oct-06 01:00N 40°29' E 017°12'0 0.0
2017-Oct-06 00:30N 40°29' E 017°12'0 0.0
2017-Oct-06 00:00N 40°29' E 017°12'0 0.0
2017-Oct-05 23:30N 40°29' E 017°12'0 0.0
2017-Oct-05 23:00N 40°29' E 017°12'0 0.0
2017-Oct-05 22:30N 40°29' E 017°12'0 0.0
2017-Oct-05 22:00N 40°29' E 017°12'0 0.0
2017-Oct-05 21:30N 40°29' E 017°12'0 0.0
2017-Oct-05 21:00N 40°29' E 017°12'0 0.0
2017-Oct-05 20:30N 40°29' E 017°12'0 0.0
2017-Oct-05 20:00N 40°29' E 017°12'0 0.0
2017-Oct-05 19:31N 40°29' E 017°12'0 0.0
2017-Oct-05 19:00N 40°29' E 017°12'0 0.0
2017-Oct-05 18:30N 40°29' E 017°12'0 0.0
2017-Oct-05 18:00N 40°29' E 017°12'0 0.0
2017-Oct-05 17:30N 40°29' E 017°12'0 0.0
2017-Oct-05 17:00N 40°29' E 017°12'0 0.0
2017-Oct-05 15:30N 40°29' E 017°12'0 0.0
2017-Oct-05 15:00N 40°29' E 017°12'0 0.0
2017-Oct-05 14:30N 40°29' E 017°12'0 0.3
2017-Oct-05 14:00N 40°28' E 017°12'0 0.0
2017-Oct-05 13:29N 40°28' E 017°12'0 0.0
2017-Oct-05 13:01N 40°28' E 017°12'0 0.0
2017-Oct-05 12:31N 40°28' E 017°12'0 0.0
2017-Oct-05 12:00N 40°28' E 017°12'0 0.0
2017-Oct-05 11:30N 40°28' E 017°12'0 0.0
2017-Oct-05 11:00N 40°28' E 017°12'0 0.0
2017-Oct-05 10:30N 40°28' E 017°12'0 0.0
2017-Oct-05 10:00N 40°28' E 017°12'0 0.1
2017-Oct-05 09:30N 40°28' E 017°12'0 0.0
2017-Oct-05 09:01N 40°28' E 017°12'0 0.0
2017-Oct-05 08:30N 40°28' E 017°12'0 0.0
2017-Oct-05 07:57N 40°28' E 017°12'0 0.0
2017-Oct-05 07:30N 40°28' E 017°12'0 0.0
2017-Oct-05 07:00N 40°28' E 017°12'0 0.0
2017-Oct-05 06:31N 40°28' E 017°12'0 0.2
2017-Oct-05 06:01N 40°29' E 017°12'0 0.0
2017-Oct-05 05:30N 40°29' E 017°12'0 0.0
2017-Oct-05 04:59N 40°29' E 017°12'0 0.0
2017-Oct-05 04:30N 40°29' E 017°12'0 0.0
2017-Oct-05 04:00N 40°29' E 017°12'0 0.0
2017-Oct-05 03:30N 40°29' E 017°12'0 0.0
2017-Oct-05 02:58N 40°29' E 017°12'0 0.0
2017-Oct-05 02:29N 40°29' E 017°12'0 0.0
2017-Oct-05 02:00N 40°29' E 017°12'0 0.0
2017-Oct-05 01:30N 40°29' E 017°12'0 0.0
2017-Oct-05 00:59N 40°29' E 017°12'0 0.0
2017-Oct-05 00:30N 40°29' E 017°12'0 0.0
2017-Oct-05 00:00N 40°29' E 017°12'0 0.0
2017-Oct-04 23:30N 40°29' E 017°12'0 0.0
2017-Oct-04 23:00N 40°29' E 017°12'0 0.0
2017-Oct-04 22:30N 40°29' E 017°12'0 0.0
2017-Oct-04 22:00N 40°29' E 017°12'0 0.0
2017-Oct-04 21:30N 40°29' E 017°12'0 0.0
2017-Oct-04 20:59N 40°29' E 017°12'0 0.0
2017-Oct-04 20:30N 40°29' E 017°12'0 0.0
2017-Oct-04 20:00N 40°29' E 017°12'0 0.0
2017-Oct-04 19:30N 40°29' E 017°12'0 0.0
2017-Oct-04 19:01N 40°29' E 017°12'0 0.0
2017-Oct-04 18:31N 40°29' E 017°12'0 0.0
2017-Oct-04 18:01N 40°29' E 017°12'0 0.0
2017-Oct-04 17:30N 40°29' E 017°12'0 0.0
2017-Oct-04 17:00N 40°29' E 017°12'0 0.0
2017-Oct-04 16:30N 40°29' E 017°12'0 0.0
2017-Oct-04 16:01N 40°29' E 017°12'0 0.0
2017-Oct-04 15:30N 40°29' E 017°12'0 0.0
2017-Oct-04 15:00N 40°29' E 017°12'0 0.0
2017-Oct-04 14:30N 40°29' E 017°12'0 0.0
2017-Oct-04 14:01N 40°29' E 017°12'0 0.2
2017-Oct-04 13:30N 40°28' E 017°12'0 0.0
2017-Oct-04 13:00N 40°28' E 017°12'0 0.0
2017-Oct-04 12:30N 40°28' E 017°12'0 0.0
2017-Oct-04 12:01N 40°28' E 017°12'0 0.0
2017-Oct-04 11:31N 40°28' E 017°12'0 0.3
2017-Oct-04 11:00N 40°29' E 017°12'0 0.0
2017-Oct-04 10:31N 40°29' E 017°12'0 0.0
2017-Oct-04 10:00N 40°29' E 017°12'0 0.0
2017-Oct-04 09:31N 40°29' E 017°12'0 0.0
2017-Oct-04 09:00N 40°29' E 017°12'0 0.0
2017-Oct-04 08:30N 40°29' E 017°12'0 0.0
2017-Oct-04 08:01N 40°29' E 017°12'0 0.0
2017-Oct-04 07:30N 40°29' E 017°12'0 0.0
2017-Oct-04 07:00N 40°29' E 017°12'0 0.0
2017-Oct-04 06:30N 40°29' E 017°12'0 0.0
2017-Oct-04 06:00N 40°29' E 017°12'0 0.0
2017-Oct-04 05:30N 40°29' E 017°12'0 0.0
2017-Oct-04 05:00N 40°29' E 017°12'0 0.0
2017-Oct-04 04:30N 40°29' E 017°12'0 0.0
2017-Oct-04 04:01N 40°29' E 017°12'0 0.0
2017-Oct-04 03:30N 40°29' E 017°12'0 0.0
2017-Oct-04 03:00N 40°29' E 017°12'0 0.0
2017-Oct-04 02:30N 40°29' E 017°12'0 0.0
2017-Oct-04 02:01N 40°29' E 017°12'0 0.0
2017-Oct-04 01:30N 40°29' E 017°12'0 0.0
2017-Oct-04 01:00N 40°29' E 017°12'0 0.0
2017-Oct-04 00:30N 40°29' E 017°12'0 0.0
2017-Oct-04 00:00N 40°29' E 017°12'0 0.0
2017-Oct-03 23:30N 40°29' E 017°12'0 0.0
2017-Oct-03 23:01N 40°29' E 017°12'0 0.0
2017-Oct-03 22:30N 40°29' E 017°12'0 0.0
2017-Oct-03 22:01N 40°29' E 017°12'0 0.0
2017-Oct-03 21:30N 40°29' E 017°12'0 0.0
2017-Oct-03 21:00N 40°29' E 017°12'0 0.0
2017-Oct-03 20:30N 40°29' E 017°12'0 0.0
2017-Oct-03 20:00N 40°29' E 017°12'0 0.0
2017-Oct-03 19:30N 40°29' E 017°12'0 0.0
2017-Oct-03 19:00N 40°29' E 017°12'0 0.0
2017-Oct-03 18:30N 40°29' E 017°12'0 0.0
2017-Oct-03 18:00N 40°29' E 017°12'0 0.0
2017-Oct-03 17:30N 40°29' E 017°12'0 0.0
2017-Oct-03 17:00N 40°29' E 017°12'0 0.0
2017-Oct-03 16:30N 40°29' E 017°12'0 0.0
2017-Oct-03 16:00N 40°29' E 017°12'0 0.0
2017-Oct-03 15:30N 40°29' E 017°12'0 0.0
2017-Oct-03 15:00N 40°29' E 017°12'0 0.0
2017-Oct-03 14:00N 40°29' E 017°12'0 0.0
2017-Oct-03 13:30N 40°29' E 017°12'0 0.0
2017-Oct-03 13:00N 40°29' E 017°12'0 0.0
2017-Oct-03 12:31N 40°29' E 017°12'0 0.0
2017-Oct-03 12:00N 40°29' E 017°12'0 0.3
2017-Oct-03 11:30N 40°28' E 017°12'0 0.0
2017-Oct-03 11:00N 40°28' E 017°12'0 0.2
2017-Oct-03 10:31N 40°29' E 017°12'0 0.0
2017-Oct-03 10:00N 40°29' E 017°12'0 0.2
2017-Oct-03 09:30N 40°28' E 017°12'0 0.0
2017-Oct-03 09:00N 40°28' E 017°12'0 0.2
2017-Oct-03 08:30N 40°29' E 017°12'0 0.0
2017-Oct-03 08:00N 40°29' E 017°12'0 0.2
2017-Oct-03 07:30N 40°28' E 017°12'0 0.0
2017-Oct-03 07:00N 40°28' E 017°12'0 0.0
2017-Oct-03 06:30N 40°28' E 017°12'0 0.2
2017-Oct-03 06:00N 40°29' E 017°12'0 0.0
2017-Oct-03 05:29N 40°29' E 017°12'0 0.0
2017-Oct-03 05:00N 40°29' E 017°12'0 0.0
2017-Oct-03 04:30N 40°29' E 017°12'0 0.0
2017-Oct-03 04:00N 40°29' E 017°12'0 0.0
2017-Oct-03 03:30N 40°29' E 017°12'0 0.0
2017-Oct-03 03:00N 40°29' E 017°12'0 0.0
2017-Oct-03 02:30N 40°29' E 017°12'0 0.0
2017-Oct-03 02:00N 40°29' E 017°12'0 0.0
2017-Oct-03 01:30N 40°29' E 017°12'0 0.0
2017-Oct-03 01:00N 40°29' E 017°12'0 0.0
2017-Oct-03 00:30N 40°29' E 017°12'0 0.0
2017-Oct-03 00:00N 40°29' E 017°12'0 0.0
2017-Oct-02 23:30N 40°29' E 017°12'0 0.0
2017-Oct-02 23:00N 40°29' E 017°12'0 0.0
2017-Oct-02 22:30N 40°29' E 017°12'0 0.0
2017-Oct-02 22:00N 40°29' E 017°12'0 0.0
2017-Oct-02 21:30N 40°29' E 017°12'0 0.0
2017-Oct-02 21:01N 40°29' E 017°12'0 0.0
2017-Oct-02 20:30N 40°29' E 017°12'0 0.0
2017-Oct-02 20:00N 40°29' E 017°12'0 0.0
2017-Oct-02 19:30N 40°29' E 017°12'0 0.0
2017-Oct-02 19:00N 40°29' E 017°12'0 0.0
2017-Oct-02 18:30N 40°29' E 017°12'0 0.0
2017-Oct-02 18:00N 40°29' E 017°12'0 0.0
2017-Oct-02 17:30N 40°29' E 017°12'0 0.0
2017-Oct-02 17:00N 40°29' E 017°12'0 0.0
2017-Oct-02 16:29N 40°29' E 017°12'0 0.0
2017-Oct-02 16:00N 40°29' E 017°12'0 0.0
2017-Oct-02 15:30N 40°29' E 017°12'0 0.0
2017-Oct-02 15:00N 40°29' E 017°12'0 0.0
2017-Oct-02 14:30N 40°29' E 017°12'0 0.0
2017-Oct-02 14:00N 40°29' E 017°12'0 0.0
2017-Oct-02 13:30N 40°29' E 017°12'0 0.0
2017-Oct-02 13:00N 40°29' E 017°12'0 0.0
2017-Oct-02 12:30N 40°29' E 017°12'0 0.0
2017-Oct-02 12:00N 40°29' E 017°12'0 0.0
2017-Oct-02 11:30N 40°29' E 017°12'0 0.0
2017-Oct-02 11:00N 40°29' E 017°12'0 0.3
2017-Oct-02 10:30N 40°28' E 017°12'0 0.1
2017-Oct-02 10:00N 40°28' E 017°12'0 0.2
2017-Oct-02 09:30N 40°29' E 017°12'0 0.0
2017-Oct-02 09:00N 40°29' E 017°12'0 0.3
2017-Oct-02 08:30N 40°28' E 017°12'0 0.0
2017-Oct-02 08:00N 40°28' E 017°12'0 0.3
2017-Oct-02 07:30N 40°29' E 017°12'0 0.0
2017-Oct-02 07:00N 40°29' E 017°12'0 0.0
2017-Oct-02 06:31N 40°29' E 017°12'0 0.0
2017-Oct-02 06:00N 40°29' E 017°12'0 0.0
2017-Oct-02 05:31N 40°29' E 017°12'0 0.0
2017-Oct-02 05:00N 40°29' E 017°12'0 0.0
2017-Oct-02 04:30N 40°29' E 017°12'0 0.0
2017-Oct-02 04:00N 40°29' E 017°12'0 0.0
2017-Oct-02 03:30N 40°29' E 017°12'0 0.0
2017-Oct-02 03:00N 40°29' E 017°12'0 0.0
2017-Oct-02 02:31N 40°29' E 017°12'0 0.0
2017-Oct-02 02:00N 40°29' E 017°12'0 0.0
2017-Oct-02 01:30N 40°29' E 017°12'0 0.0
2017-Oct-02 01:00N 40°29' E 017°12'0 0.0
2017-Oct-02 00:31N 40°29' E 017°12'0 0.0
2017-Oct-02 00:00N 40°29' E 017°12'0 0.0
2017-Oct-01 23:30N 40°29' E 017°12'0 0.0
2017-Oct-01 23:00N 40°29' E 017°12'0 0.0
2017-Oct-01 22:30N 40°29' E 017°12'0 0.0
2017-Oct-01 22:00N 40°29' E 017°12'0 0.0
2017-Oct-01 21:31N 40°29' E 017°12'0 0.0
2017-Oct-01 21:01N 40°29' E 017°12'0 0.0
2017-Oct-01 20:30N 40°29' E 017°12'0 0.0
2017-Oct-01 20:01N 40°29' E 017°12'0 0.0
2017-Oct-01 19:30N 40°29' E 017°12'0 0.0
2017-Oct-01 19:01N 40°29' E 017°12'0 0.0
2017-Oct-01 18:30N 40°29' E 017°12'0 0.0
2017-Oct-01 18:00N 40°29' E 017°12'0 0.0
2017-Oct-01 17:30N 40°29' E 017°12'0 0.0
2017-Oct-01 17:00N 40°29' E 017°12'0 0.0
2017-Oct-01 16:31N 40°29' E 017°12'0 0.0
2017-Oct-01 16:00N 40°29' E 017°12'0 0.0
2017-Oct-01 15:30N 40°29' E 017°12'0 0.0
2017-Oct-01 15:00N 40°29' E 017°12'0 0.0
2017-Oct-01 14:30N 40°29' E 017°12'0 0.0
2017-Oct-01 13:59N 40°29' E 017°12'0 0.0
2017-Oct-01 13:30N 40°29' E 017°12'0 0.0
2017-Oct-01 13:00N 40°29' E 017°12'0 0.0
2017-Oct-01 12:30N 40°29' E 017°12'0 0.0
2017-Oct-01 12:01N 40°29' E 017°12'0 0.0
2017-Oct-01 11:30N 40°29' E 017°12'0 0.2
2017-Oct-01 11:00N 40°28' E 017°12'0 0.0
2017-Oct-01 10:31N 40°28' E 017°12'0 0.0
2017-Oct-01 10:00N 40°28' E 017°12'0 0.0
2017-Oct-01 09:30N 40°28' E 017°12'0 0.0
2017-Oct-01 09:01N 40°28' E 017°12'0 0.0
2017-Oct-01 08:30N 40°28' E 017°12'0 0.0
2017-Oct-01 08:00N 40°28' E 017°12'0 0.0
2017-Oct-01 07:30N 40°28' E 017°12'0 0.0
2017-Oct-01 07:00N 40°28' E 017°12'0 0.0
2017-Oct-01 06:30N 40°28' E 017°12'0 0.3
2017-Oct-01 06:00N 40°29' E 017°12'0 0.0
2017-Oct-01 05:30N 40°29' E 017°12'0 0.0
2017-Oct-01 05:00N 40°29' E 017°12'0 0.0
2017-Oct-01 04:30N 40°29' E 017°12'0 0.0
2017-Oct-01 04:00N 40°29' E 017°12'0 0.0
2017-Oct-01 03:30N 40°29' E 017°12'0 0.0
2017-Oct-01 03:00N 40°29' E 017°12'0 0.0
2017-Sep-30 02:00N 40°29' E 017°12'0 0.0
2017-Sep-30 01:30N 40°29' E 017°12'0 0.0
2017-Sep-30 01:00N 40°29' E 017°12'0 0.0
2017-Sep-30 00:30N 40°29' E 017°12'0 0.0
2017-Sep-30 00:01N 40°29' E 017°12'0 0.0
2017-Sep-29 23:30N 40°29' E 017°12'0 0.0
2017-Sep-29 23:00N 40°29' E 017°12'0 0.0
2017-Sep-29 22:30N 40°29' E 017°12'0 0.0
2017-Sep-29 22:00N 40°29' E 017°12'0 0.0
2017-Sep-29 21:30N 40°29' E 017°12'0 0.0
2017-Sep-29 21:00N 40°29' E 017°12'0 0.0
2017-Sep-29 20:30N 40°29' E 017°12'0 0.0
2017-Sep-29 20:00N 40°29' E 017°12'0 0.0
2017-Sep-29 19:30N 40°29' E 017°12'0 0.0
2017-Sep-29 19:00N 40°29' E 017°12'0 0.0
2017-Sep-29 18:30N 40°29' E 017°12'0 0.0
2017-Sep-29 18:00N 40°29' E 017°12'0 0.0
2017-Sep-29 17:30N 40°29' E 017°12'0 0.0
2017-Sep-29 17:00N 40°29' E 017°12'0 0.0
2017-Sep-29 16:30N 40°29' E 017°12'0 0.0
2017-Sep-29 16:00N 40°29' E 017°12'0 0.0
2017-Sep-29 15:30N 40°29' E 017°12'0 0.2
2017-Sep-29 15:00N 40°28' E 017°12'0 0.0
2017-Sep-29 14:31N 40°28' E 017°12'0 0.0
2017-Sep-29 14:00N 40°28' E 017°12'0 0.0
2017-Sep-29 13:31N 40°28' E 017°12'0 0.0
2017-Sep-29 13:00N 40°28' E 017°12'0 0.0
2017-Sep-29 12:30N 40°28' E 017°12'0 0.0
2017-Sep-29 12:00N 40°28' E 017°12'0 0.0
2017-Sep-29 11:30N 40°28' E 017°12'0 0.0
2017-Sep-29 11:00N 40°28' E 017°12'0 0.0
2017-Sep-29 10:30N 40°28' E 017°12'0 0.3
2017-Sep-29 10:00N 40°29' E 017°12'0 0.3
2017-Sep-29 09:31N 40°28' E 017°12'0 0.0
2017-Sep-29 09:00N 40°28' E 017°12'0 0.0
2017-Sep-29 08:30N 40°28' E 017°12'0 0.0
2017-Sep-29 08:00N 40°28' E 017°12'0 0.0
2017-Sep-29 07:30N 40°28' E 017°12'0 0.3
2017-Sep-29 07:00N 40°29' E 017°12'0 0.0
2017-Sep-29 06:30N 40°29' E 017°12'0 0.0
2017-Sep-29 06:00N 40°29' E 017°12'0 0.0
2017-Sep-29 05:31N 40°29' E 017°12'0 0.0
2017-Sep-29 05:00N 40°29' E 017°12'0 0.0
2017-Sep-29 04:30N 40°29' E 017°12'0 0.0
2017-Sep-29 04:00N 40°29' E 017°12'0 0.0
2017-Sep-29 03:30N 40°29' E 017°12'0 0.0
2017-Sep-29 03:01N 40°29' E 017°12'0 0.0
2017-Sep-29 02:30N 40°29' E 017°12'0 0.0
2017-Sep-29 02:00N 40°29' E 017°12'0 0.0
2017-Sep-29 01:30N 40°29' E 017°12'0 0.0
2017-Sep-29 01:00N 40°29' E 017°12'0 0.0
2017-Sep-29 00:30N 40°29' E 017°12'0 0.0
2017-Sep-29 00:00N 40°29' E 017°12'0 0.0
2017-Sep-28 23:31N 40°29' E 017°12'0 0.0
2017-Sep-28 23:00N 40°29' E 017°12'0 0.0
2017-Sep-28 22:31N 40°29' E 017°12'0 0.0
2017-Sep-28 22:00N 40°29' E 017°12'0 0.0
2017-Sep-28 21:31N 40°29' E 017°12'0 0.0
2017-Sep-28 21:00N 40°29' E 017°12'0 0.0
2017-Sep-28 20:31N 40°29' E 017°12'0 0.0
2017-Sep-28 20:01N 40°29' E 017°12'0 0.0
2017-Sep-28 19:30N 40°29' E 017°12'0 0.0
2017-Sep-28 19:00N 40°29' E 017°12'0 0.0
2017-Sep-28 18:30N 40°29' E 017°12'0 0.0
2017-Sep-28 18:00N 40°29' E 017°12'0 0.0
2017-Sep-28 17:30N 40°29' E 017°12'0 0.0
2017-Sep-28 17:00N 40°29' E 017°12'0 0.0
2017-Sep-28 16:30N 40°29' E 017°12'0 0.0
2017-Sep-28 16:00N 40°29' E 017°12'0 0.0
2017-Sep-28 15:30N 40°29' E 017°12'0 0.0
2017-Sep-28 14:59N 40°29' E 017°12'0 0.0
2017-Sep-28 14:30N 40°29' E 017°12'0 0.3
2017-Sep-28 14:00N 40°28' E 017°12'0 0.0
2017-Sep-28 13:30N 40°28' E 017°12'0 0.0
2017-Sep-28 13:01N 40°28' E 017°12'0 0.0
2017-Sep-28 12:30N 40°28' E 017°12'0 0.0
2017-Sep-28 12:00N 40°28' E 017°12'0 0.0
2017-Sep-28 11:30N 40°28' E 017°12'0 0.0
2017-Sep-28 11:00N 40°28' E 017°12'  

Dump ship's entire track history